sensor_id;sensor_type;location;lat;lon;timestamp;pressure;altitude;pressure_sealevel;temperature;humidity
113;BME280;45999;48.808;9.182;2024-01-06T00:01:19;96881.97;;;5.57;100.00
113;BME280;45999;48.808;9.182;2024-01-06T00:03:46;96882.53;;;5.59;100.00
113;BME280;45999;48.808;9.182;2024-01-06T00:06:15;96890.44;;;5.59;100.00
113;BME280;45999;48.808;9.182;2024-01-06T00:08:41;96894.94;;;5.58;100.00
113;BME280;45999;48.808;9.182;2024-01-06T00:11:08;96897.78;;;5.57;100.00
113;BME280;45999;48.808;9.182;2024-01-06T00:13:38;96893.31;;;5.57;100.00
113;BME280;45999;48.808;9.182;2024-01-06T00:16:05;96894.13;;;5.58;100.00
113;BME280;45999;48.808;9.182;2024-01-06T00:18:35;96893.53;;;5.56;100.00
113;BME280;45999;48.808;9.182;2024-01-06T00:21:04;96901.22;;;5.57;100.00
113;BME280;45999;48.808;9.182;2024-01-06T00:23:32;96899.38;;;5.58;100.00
113;BME280;45999;48.808;9.182;2024-01-06T00:26:01;96898.81;;;5.56;100.00
113;BME280;45999;48.808;9.182;2024-01-06T00:28:27;96899.59;;;5.56;100.00
113;BME280;45999;48.808;9.182;2024-01-06T00:30:53;96902.41;;;5.61;100.00
113;BME280;45999;48.808;9.182;2024-01-06T00:33:21;96905.25;;;5.60;100.00
113;BME280;45999;48.808;9.182;2024-01-06T00:35:48;96904.66;;;5.58;100.00
113;BME280;45999;48.808;9.182;2024-01-06T00:38:15;96904.88;;;5.56;100.00
113;BME280;45999;48.808;9.182;2024-01-06T00:40:42;96909.00;;;5.46;100.00
113;BME280;45999;48.808;9.182;2024-01-06T00:43:09;96905.13;;;5.48;100.00
113;BME280;45999;48.808;9.182;2024-01-06T00:45:35;96903.53;;;5.47;100.00
113;BME280;45999;48.808;9.182;2024-01-06T00:48:02;96903.56;;;5.41;100.00
113;BME280;45999;48.808;9.182;2024-01-06T00:50:28;96911.94;;;5.38;100.00
113;BME280;45999;48.808;9.182;2024-01-06T00:52:55;96910.75;;;5.34;100.00
113;BME280;45999;48.808;9.182;2024-01-06T00:55:24;96921.06;;;5.35;100.00
113;BME280;45999;48.808;9.182;2024-01-06T00:57:51;96924.13;;;5.32;100.00
113;BME280;45999;48.808;9.182;2024-01-06T01:00:18;96920.66;;;5.32;100.00
113;BME280;45999;48.808;9.182;2024-01-06T01:02:45;96922.09;;;5.28;100.00
113;BME280;45999;48.808;9.182;2024-01-06T01:05:13;96930.78;;;5.35;100.00
113;BME280;45999;48.808;9.182;2024-01-06T01:07:40;96936.47;;;5.32;100.00
113;BME280;45999;48.808;9.182;2024-01-06T01:10:06;96930.22;;;5.33;100.00
113;BME280;45999;48.808;9.182;2024-01-06T01:12:34;96931.03;;;5.27;100.00
113;BME280;45999;48.808;9.182;2024-01-06T01:15:00;96938.13;;;5.33;100.00
113;BME280;45999;48.808;9.182;2024-01-06T01:17:27;96939.72;;;5.34;100.00
113;BME280;45999;48.808;9.182;2024-01-06T01:19:53;96942.09;;;5.42;100.00
113;BME280;45999;48.808;9.182;2024-01-06T01:22:19;96941.34;;;5.35;100.00
113;BME280;45999;48.808;9.182;2024-01-06T01:24:46;96944.78;;;5.35;100.00
113;BME280;45999;48.808;9.182;2024-01-06T01:27:12;96949.44;;;5.33;100.00
113;BME280;45999;48.808;9.182;2024-01-06T01:29:39;96941.94;;;5.30;100.00
113;BME280;45999;48.808;9.182;2024-01-06T01:32:05;96944.81;;;5.29;100.00
113;BME280;45999;48.808;9.182;2024-01-06T01:34:32;96952.09;;;5.33;100.00
113;BME280;45999;48.808;9.182;2024-01-06T01:36:59;96956.56;;;5.33;100.00
113;BME280;45999;48.808;9.182;2024-01-06T01:39:26;96954.50;;;5.35;100.00
113;BME280;45999;48.808;9.182;2024-01-06T01:41:56;96956.31;;;5.34;100.00
113;BME280;45999;48.808;9.182;2024-01-06T01:44:25;96962.25;;;5.30;100.00
113;BME280;45999;48.808;9.182;2024-01-06T01:46:51;96962.25;;;5.30;100.00
113;BME280;45999;48.808;9.182;2024-01-06T01:49:17;96962.63;;;5.33;100.00
113;BME280;45999;48.808;9.182;2024-01-06T01:51:44;96964.84;;;5.36;100.00
113;BME280;45999;48.808;9.182;2024-01-06T01:54:11;96964.88;;;5.30;100.00
113;BME280;45999;48.808;9.182;2024-01-06T01:56:40;96967.50;;;5.30;100.00
113;BME280;45999;48.808;9.182;2024-01-06T01:59:13;96966.28;;;5.32;100.00
113;BME280;45999;48.808;9.182;2024-01-06T02:01:42;96965.66;;;5.30;100.00
113;BME280;45999;48.808;9.182;2024-01-06T02:04:09;96966.91;;;5.28;100.00
113;BME280;45999;48.808;9.182;2024-01-06T02:06:36;96973.19;;;5.27;100.00
113;BME280;45999;48.808;9.182;2024-01-06T02:09:03;96974.44;;;5.24;100.00
113;BME280;45999;48.808;9.182;2024-01-06T02:11:30;96974.00;;;5.27;100.00
113;BME280;45999;48.808;9.182;2024-01-06T02:13:58;96974.81;;;5.28;100.00
113;BME280;45999;48.808;9.182;2024-01-06T02:16:26;96975.84;;;5.27;100.00
113;BME280;45999;48.808;9.182;2024-01-06T02:18:54;96981.53;;;5.24;100.00
113;BME280;45999;48.808;9.182;2024-01-06T02:21:23;96978.50;;;5.20;100.00
113;BME280;45999;48.808;9.182;2024-01-06T02:23:51;96982.38;;;5.18;100.00
113;BME280;45999;48.808;9.182;2024-01-06T02:26:20;96988.00;;;5.21;100.00
113;BME280;45999;48.808;9.182;2024-01-06T02:28:47;96987.84;;;5.16;100.00
113;BME280;45999;48.808;9.182;2024-01-06T02:31:14;96991.50;;;5.15;100.00
113;BME280;45999;48.808;9.182;2024-01-06T02:33:41;96997.94;;;5.26;100.00
113;BME280;45999;48.808;9.182;2024-01-06T02:36:10;96989.66;;;5.22;100.00
113;BME280;45999;48.808;9.182;2024-01-06T02:38:39;96991.84;;;5.25;100.00
113;BME280;45999;48.808;9.182;2024-01-06T02:41:10;96995.06;;;5.34;100.00
113;BME280;45999;48.808;9.182;2024-01-06T02:43:36;96997.91;;;5.32;100.00
113;BME280;45999;48.808;9.182;2024-01-06T02:46:03;96998.94;;;5.31;100.00
113;BME280;45999;48.808;9.182;2024-01-06T02:48:29;97001.38;;;5.26;100.00
113;BME280;45999;48.808;9.182;2024-01-06T02:50:57;96995.63;;;5.36;100.00
113;BME280;45999;48.808;9.182;2024-01-06T02:53:25;96994.81;;;5.42;100.00
113;BME280;45999;48.808;9.182;2024-01-06T02:55:52;96988.19;;;5.33;100.00
113;BME280;45999;48.808;9.182;2024-01-06T02:58:20;96990.00;;;5.32;100.00
113;BME280;45999;48.808;9.182;2024-01-06T03:00:48;97004.00;;;5.33;100.00
113;BME280;45999;48.808;9.182;2024-01-06T03:03:16;97000.69;;;5.37;100.00
113;BME280;45999;48.808;9.182;2024-01-06T03:05:46;97015.97;;;5.29;100.00
113;BME280;45999;48.808;9.182;2024-01-06T03:08:15;97008.06;;;5.29;100.00
113;BME280;45999;48.808;9.182;2024-01-06T03:10:44;97004.84;;;5.20;100.00
113;BME280;45999;48.808;9.182;2024-01-06T03:13:12;96998.78;;;5.20;100.00
113;BME280;45999;48.808;9.182;2024-01-06T03:15:40;97000.22;;;5.16;100.00
113;BME280;45999;48.808;9.182;2024-01-06T03:18:08;97002.47;;;5.12;100.00
113;BME280;45999;48.808;9.182;2024-01-06T03:20:38;97015.41;;;5.14;100.00
113;BME280;45999;48.808;9.182;2024-01-06T03:23:07;97009.38;;;5.07;100.00
113;BME280;45999;48.808;9.182;2024-01-06T03:25:41;97005.72;;;5.08;100.00
113;BME280;45999;48.808;9.182;2024-01-06T03:28:13;97002.09;;;5.02;100.00
113;BME280;45999;48.808;9.182;2024-01-06T03:30:44;97003.75;;;5.03;100.00
113;BME280;45999;48.808;9.182;2024-01-06T03:33:19;97004.53;;;5.04;100.00
113;BME280;45999;48.808;9.182;2024-01-06T03:35:47;97008.19;;;5.03;100.00
113;BME280;45999;48.808;9.182;2024-01-06T03:38:14;96999.94;;;4.93;100.00
113;BME280;45999;48.808;9.182;2024-01-06T03:40:49;97000.72;;;4.93;100.00
113;BME280;45999;48.808;9.182;2024-01-06T03:43:17;97002.50;;;5.06;100.00
113;BME280;45999;48.808;9.182;2024-01-06T03:45:47;96991.75;;;5.01;100.00
113;BME280;45999;48.808;9.182;2024-01-06T03:48:26;96991.75;;;5.01;100.00
113;BME280;45999;48.808;9.182;2024-01-06T03:50:55;96992.38;;;5.03;100.00
113;BME280;45999;48.808;9.182;2024-01-06T03:53:24;96994.19;;;5.02;100.00
113;BME280;45999;48.808;9.182;2024-01-06T03:55:55;97000.88;;;5.05;100.00
113;BME280;45999;48.808;9.182;2024-01-06T03:58:26;96997.25;;;5.06;100.00
113;BME280;45999;48.808;9.182;2024-01-06T04:00:54;96999.66;;;5.01;100.00
113;BME280;45999;48.808;9.182;2024-01-06T04:03:25;97008.00;;;4.98;100.00
113;BME280;45999;48.808;9.182;2024-01-06T04:05:56;97004.16;;;5.00;100.00
113;BME280;45999;48.808;9.182;2024-01-06T04:08:24;96998.69;;;4.95;100.00
113;BME280;45999;48.808;9.182;2024-01-06T04:10:54;97010.25;;;4.94;100.00
113;BME280;45999;48.808;9.182;2024-01-06T04:13:23;97010.25;;;4.94;100.00
113;BME280;45999;48.808;9.182;2024-01-06T04:15:52;97007.81;;;4.93;100.00
113;BME280;45999;48.808;9.182;2024-01-06T04:18:27;97012.06;;;4.94;100.00
113;BME280;45999;48.808;9.182;2024-01-06T04:20:57;97022.59;;;4.94;100.00
113;BME280;45999;48.808;9.182;2024-01-06T04:23:25;97011.06;;;4.95;100.00
113;BME280;45999;48.808;9.182;2024-01-06T04:25:53;97017.16;;;4.89;100.00
113;BME280;45999;48.808;9.182;2024-01-06T04:28:22;97023.63;;;4.93;100.00
113;BME280;45999;48.808;9.182;2024-01-06T04:30:53;97025.03;;;4.95;100.00
113;BME280;45999;48.808;9.182;2024-01-06T04:33:23;97025.25;;;4.87;100.00
113;BME280;45999;48.808;9.182;2024-01-06T04:35:50;97020.16;;;4.99;100.00
113;BME280;45999;48.808;9.182;2024-01-06T04:38:17;97024.00;;;4.96;100.00
113;BME280;45999;48.808;9.182;2024-01-06T04:40:44;97028.28;;;4.91;100.00
113;BME280;45999;48.808;9.182;2024-01-06T04:43:12;97027.06;;;4.93;100.00
113;BME280;45999;48.808;9.182;2024-01-06T04:45:39;97029.50;;;4.88;100.00
113;BME280;45999;48.808;9.182;2024-01-06T04:48:06;97025.47;;;4.86;100.00
113;BME280;45999;48.808;9.182;2024-01-06T04:50:34;97023.84;;;4.85;100.00
113;BME280;45999;48.808;9.182;2024-01-06T04:53:01;97021.63;;;4.82;100.00
113;BME280;45999;48.808;9.182;2024-01-06T04:55:27;97025.03;;;4.95;100.00
113;BME280;45999;48.808;9.182;2024-01-06T04:57:54;97036.59;;;4.94;100.00
113;BME280;45999;48.808;9.182;2024-01-06T05:00:20;97034.16;;;4.93;100.00
113;BME280;45999;48.808;9.182;2024-01-06T05:02:47;97039.66;;;4.85;100.00
113;BME280;45999;48.808;9.182;2024-01-06T05:05:13;97036.78;;;4.93;100.00
113;BME280;45999;48.808;9.182;2024-01-06T05:07:39;97036.41;;;4.83;100.00
113;BME280;45999;48.808;9.182;2024-01-06T05:10:06;97044.72;;;4.80;100.00
113;BME280;45999;48.808;9.182;2024-01-06T05:12:33;97042.72;;;4.75;100.00
113;BME280;45999;48.808;9.182;2024-01-06T05:14:59;97051.03;;;4.79;100.00
113;BME280;45999;48.808;9.182;2024-01-06T05:17:25;97050.00;;;4.80;100.00
113;BME280;45999;48.808;9.182;2024-01-06T05:19:52;97058.31;;;4.77;100.00
113;BME280;45999;48.808;9.182;2024-01-06T05:22:18;97044.94;;;4.78;100.00
113;BME280;45999;48.808;9.182;2024-01-06T05:24:44;97055.84;;;4.82;100.00
113;BME280;45999;48.808;9.182;2024-01-06T05:27:11;97053.22;;;4.82;100.00
113;BME280;45999;48.808;9.182;2024-01-06T05:29:37;97055.84;;;4.88;100.00
113;BME280;45999;48.808;9.182;2024-01-06T05:32:04;97049.38;;;4.84;100.00
113;BME280;45999;48.808;9.182;2024-01-06T05:34:30;97063.56;;;4.83;100.00
113;BME280;45999;48.808;9.182;2024-01-06T05:36:57;97069.84;;;4.82;100.00
113;BME280;45999;48.808;9.182;2024-01-06T05:39:23;97065.97;;;4.85;100.00
113;BME280;45999;48.808;9.182;2024-01-06T05:41:50;97069.63;;;4.84;100.00
113;BME280;45999;48.808;9.182;2024-01-06T05:44:16;97066.59;;;4.80;100.00
113;BME280;45999;48.808;9.182;2024-01-06T05:46:43;97061.56;;;4.79;100.00
113;BME280;45999;48.808;9.182;2024-01-06T05:49:09;97065.19;;;4.78;100.00
113;BME280;45999;48.808;9.182;2024-01-06T05:51:36;97078.75;;;4.81;100.00
113;BME280;45999;48.808;9.182;2024-01-06T05:54:03;97076.13;;;4.81;100.00
113;BME280;45999;48.808;9.182;2024-01-06T05:56:29;97079.38;;;4.77;100.00
113;BME280;45999;48.808;9.182;2024-01-06T05:58:56;97081.78;;;4.78;100.00
113;BME280;45999;48.808;9.182;2024-01-06T06:01:22;97084.84;;;4.75;100.00
113;BME280;45999;48.808;9.182;2024-01-06T06:03:48;97087.69;;;4.74;100.00
113;BME280;45999;48.808;9.182;2024-01-06T06:06:15;97102.03;;;4.78;100.00
113;BME280;45999;48.808;9.182;2024-01-06T06:08:42;97107.06;;;4.92;100.00
113;BME280;45999;48.808;9.182;2024-01-06T06:11:09;97112.34;;;4.92;100.00
113;BME280;45999;48.808;9.182;2024-01-06T06:13:40;97115.78;;;4.93;100.00
113;BME280;45999;48.808;9.182;2024-01-06T06:16:08;97116.00;;;4.85;100.00
113;BME280;45999;48.808;9.182;2024-01-06T06:18:35;97119.22;;;4.93;100.00
113;BME280;45999;48.808;9.182;2024-01-06T06:21:01;97112.34;;;4.86;100.00
113;BME280;45999;48.808;9.182;2024-01-06T06:23:28;97122.88;;;4.92;100.00
113;BME280;45999;48.808;9.182;2024-01-06T06:25:55;97114.38;;;4.90;100.00
113;BME280;45999;48.808;9.182;2024-01-06T06:28:21;97123.28;;;4.96;100.00
113;BME280;45999;48.808;9.182;2024-01-06T06:30:47;97120.47;;;4.84;100.00
113;BME280;45999;48.808;9.182;2024-01-06T06:33:14;97125.91;;;4.83;100.00
113;BME280;45999;48.808;9.182;2024-01-06T06:35:40;97125.72;;;4.91;100.00
113;BME280;45999;48.808;9.182;2024-01-06T06:38:07;97132.00;;;4.83;100.00
113;BME280;45999;48.808;9.182;2024-01-06T06:40:33;97134.25;;;4.80;100.00
113;BME280;45999;48.808;9.182;2024-01-06T06:43:00;97133.44;;;4.79;100.00
113;BME280;45999;48.808;9.182;2024-01-06T06:45:26;97139.91;;;4.83;100.00
113;BME280;45999;48.808;9.182;2024-01-06T06:47:52;97139.91;;;4.83;100.00
113;BME280;45999;48.808;9.182;2024-01-06T06:50:19;97146.59;;;4.86;100.00
113;BME280;45999;48.808;9.182;2024-01-06T06:52:46;97147.41;;;4.93;100.00
113;BME280;45999;48.808;9.182;2024-01-06T06:55:12;97142.34;;;4.91;100.00
113;BME280;45999;48.808;9.182;2024-01-06T06:57:39;97142.91;;;5.00;100.00
113;BME280;45999;48.808;9.182;2024-01-06T07:00:05;97151.66;;;4.94;100.00
113;BME280;45999;48.808;9.182;2024-01-06T07:02:33;97151.00;;;4.98;100.00
113;BME280;45999;48.808;9.182;2024-01-06T07:05:00;97152.66;;;4.93;100.00
113;BME280;45999;48.808;9.182;2024-01-06T07:07:26;97159.16;;;4.90;100.00
113;BME280;45999;48.808;9.182;2024-01-06T07:09:52;97159.94;;;4.91;100.00
113;BME280;45999;48.808;9.182;2024-01-06T07:12:19;97167.66;;;4.92;100.00
113;BME280;45999;48.808;9.182;2024-01-06T07:14:45;97168.28;;;4.94;100.00
113;BME280;45999;48.808;9.182;2024-01-06T07:17:12;97163.41;;;4.98;100.00
113;BME280;45999;48.808;9.182;2024-01-06T07:19:38;97161.97;;;4.95;100.00
113;BME280;45999;48.808;9.182;2024-01-06T07:22:05;97170.47;;;4.91;100.00
113;BME280;45999;48.808;9.182;2024-01-06T07:24:31;97168.47;;;4.93;100.00
113;BME280;45999;48.808;9.182;2024-01-06T07:26:57;97172.72;;;4.94;100.00
113;BME280;45999;48.808;9.182;2024-01-06T07:29:24;97170.09;;;4.94;100.00
113;BME280;45999;48.808;9.182;2024-01-06T07:31:50;97180.59;;;5.00;100.00
113;BME280;45999;48.808;9.182;2024-01-06T07:34:17;97174.50;;;5.00;100.00
113;BME280;45999;48.808;9.182;2024-01-06T07:36:45;97178.38;;;5.04;100.00
113;BME280;45999;48.808;9.182;2024-01-06T07:39:12;97181.81;;;5.04;100.00
113;BME280;45999;48.808;9.182;2024-01-06T07:41:39;97179.38;;;5.09;100.00
113;BME280;45999;48.808;9.182;2024-01-06T07:44:05;97187.06;;;5.11;100.00
113;BME280;45999;48.808;9.182;2024-01-06T07:46:32;97187.66;;;5.19;100.00
113;BME280;45999;48.808;9.182;2024-01-06T07:48:58;97186.84;;;5.19;100.00
113;BME280;45999;48.808;9.182;2024-01-06T07:51:24;97186.44;;;5.22;100.00
113;BME280;45999;48.808;9.182;2024-01-06T07:53:51;97187.66;;;5.26;100.00
113;BME280;45999;48.808;9.182;2024-01-06T07:56:18;97184.59;;;5.29;100.00
113;BME280;45999;48.808;9.182;2024-01-06T07:58:44;97189.69;;;5.24;100.00
113;BME280;45999;48.808;9.182;2024-01-06T08:01:11;97181.16;;;5.22;100.00
113;BME280;45999;48.808;9.182;2024-01-06T08:03:38;97189.06;;;5.22;100.00
113;BME280;45999;48.808;9.182;2024-01-06T08:06:04;97187.66;;;5.19;100.00
113;BME280;45999;48.808;9.182;2024-01-06T08:08:31;97183.41;;;5.25;100.00
113;BME280;45999;48.808;9.182;2024-01-06T08:10:57;97198.78;;;5.28;100.00
113;BME280;45999;48.808;9.182;2024-01-06T08:13:24;97188.22;;;5.28;100.00
113;BME280;45999;48.808;9.182;2024-01-06T08:15:50;97193.94;;;5.31;100.00
113;BME280;45999;48.808;9.182;2024-01-06T08:18:17;97190.25;;;5.32;100.00
113;BME280;45999;48.808;9.182;2024-01-06T08:20:44;97190.06;;;5.34;100.00
113;BME280;45999;48.808;9.182;2024-01-06T08:23:10;97194.50;;;5.40;100.00
113;BME280;45999;48.808;9.182;2024-01-06T08:25:37;97196.09;;;5.47;100.00
113;BME280;45999;48.808;9.182;2024-01-06T08:28:04;97195.69;;;5.44;100.00
113;BME280;45999;48.808;9.182;2024-01-06T08:30:30;97202.78;;;5.50;100.00
113;BME280;45999;48.808;9.182;2024-01-06T08:32:56;97208.47;;;5.47;100.00
113;BME280;45999;48.808;9.182;2024-01-06T08:35:24;97206.03;;;5.52;100.00
113;BME280;45999;48.808;9.182;2024-01-06T08:37:50;97211.69;;;5.55;100.00
113;BME280;45999;48.808;9.182;2024-01-06T08:40:17;97208.22;;;5.61;100.00
113;BME280;45999;48.808;9.182;2024-01-06T08:42:43;97207.59;;;5.66;100.00
113;BME280;45999;48.808;9.182;2024-01-06T08:45:09;97214.06;;;5.70;100.00
113;BME280;45999;48.808;9.182;2024-01-06T08:47:37;97218.31;;;5.71;100.00
113;BME280;45999;48.808;9.182;2024-01-06T08:50:03;97216.47;;;5.78;100.00
113;BME280;45999;48.808;9.182;2024-01-06T08:52:30;97218.31;;;5.84;100.00
113;BME280;45999;48.808;9.182;2024-01-06T08:54:56;97216.47;;;5.84;100.00
113;BME280;45999;48.808;9.182;2024-01-06T08:57:23;97220.94;;;5.84;100.00
113;BME280;45999;48.808;9.182;2024-01-06T08:59:49;97227.00;;;5.91;100.00
113;BME280;45999;48.808;9.182;2024-01-06T09:02:15;97225.91;;;6.05;100.00
113;BME280;45999;48.808;9.182;2024-01-06T09:04:42;97227.78;;;5.98;100.00
113;BME280;45999;48.808;9.182;2024-01-06T09:07:08;97229.41;;;5.92;100.00
113;BME280;45999;48.808;9.182;2024-01-06T09:09:34;97228.03;;;5.83;100.00
113;BME280;45999;48.808;9.182;2024-01-06T09:12:01;97234.50;;;5.94;100.00
113;BME280;45999;48.808;9.182;2024-01-06T09:14:27;97237.06;;;6.07;100.00
113;BME280;45999;48.808;9.182;2024-01-06T09:16:55;97236.47;;;6.05;100.00
113;BME280;45999;48.808;9.182;2024-01-06T09:19:21;97237.34;;;5.92;100.00
113;BME280;45999;48.808;9.182;2024-01-06T09:21:48;97245.88;;;5.88;100.00
113;BME280;45999;48.808;9.182;2024-01-06T09:24:14;97240.81;;;5.86;100.00
113;BME280;45999;48.808;9.182;2024-01-06T09:26:40;97243.78;;;6.03;100.00
113;BME280;45999;48.808;9.182;2024-01-06T09:29:07;97252.75;;;5.95;100.00
113;BME280;45999;48.808;9.182;2024-01-06T09:31:33;97252.31;;;5.98;100.00
113;BME280;45999;48.808;9.182;2024-01-06T09:34:00;97252.09;;;6.06;100.00
113;BME280;45999;48.808;9.182;2024-01-06T09:36:27;97254.91;;;6.11;100.00
113;BME280;45999;48.808;9.182;2024-01-06T09:38:53;97265.28;;;6.06;100.00
113;BME280;45999;48.808;9.182;2024-01-06T09:41:20;97270.72;;;6.11;100.00
113;BME280;45999;48.808;9.182;2024-01-06T09:43:47;97266.09;;;6.07;100.00
113;BME280;45999;48.808;9.182;2024-01-06T09:46:27;97275.00;;;6.12;100.00
113;BME280;45999;48.808;9.182;2024-01-06T09:48:54;97282.34;;;6.04;100.00
113;BME280;45999;48.808;9.182;2024-01-06T09:51:22;97277.25;;;6.09;100.00
113;BME280;45999;48.808;9.182;2024-01-06T09:53:59;97280.50;;;6.11;100.00
113;BME280;45999;48.808;9.182;2024-01-06T09:56:28;97271.00;;;6.03;100.00
113;BME280;45999;48.808;9.182;2024-01-06T09:58:55;97270.97;;;6.10;100.00
113;BME280;45999;48.808;9.182;2024-01-06T10:01:22;97280.28;;;6.12;100.00
113;BME280;45999;48.808;9.182;2024-01-06T10:03:49;97268.88;;;6.18;100.00
113;BME280;45999;48.808;9.182;2024-01-06T10:06:16;97271.31;;;6.20;100.00
113;BME280;45999;48.808;9.182;2024-01-06T10:08:43;97272.00;;;6.40;100.00
113;BME280;45999;48.808;9.182;2024-01-06T10:11:10;97269.22;;;6.35;100.00
113;BME280;45999;48.808;9.182;2024-01-06T10:13:36;97276.34;;;6.28;100.00
113;BME280;45999;48.808;9.182;2024-01-06T10:16:04;97269.25;;;6.22;100.00
113;BME280;45999;48.808;9.182;2024-01-06T10:18:31;97271.38;;;6.07;100.00
113;BME280;45999;48.808;9.182;2024-01-06T10:20:58;97263.81;;;6.17;100.00
113;BME280;45999;48.808;9.182;2024-01-06T10:23:26;97263.44;;;6.13;100.00
113;BME280;45999;48.808;9.182;2024-01-06T10:25:54;97265.03;;;6.21;100.00
113;BME280;45999;48.808;9.182;2024-01-06T10:28:21;97268.88;;;6.18;100.00
113;BME280;45999;48.808;9.182;2024-01-06T10:30:51;97267.88;;;6.13;100.00
113;BME280;45999;48.808;9.182;2024-01-06T10:33:18;97274.19;;;6.12;100.00
113;BME280;45999;48.808;9.182;2024-01-06T10:35:45;97271.31;;;6.20;100.00
113;BME280;45999;48.808;9.182;2024-01-06T10:38:11;97273.41;;;6.05;100.00
113;BME280;45999;48.808;9.182;2024-01-06T10:40:37;97279.31;;;6.00;100.00
113;BME280;45999;48.808;9.182;2024-01-06T10:43:05;97273.22;;;6.00;100.00
113;BME280;45999;48.808;9.182;2024-01-06T10:45:32;97279.47;;;6.12;100.00
113;BME280;45999;48.808;9.182;2024-01-06T10:47:59;97284.09;;;6.16;100.00
113;BME280;45999;48.808;9.182;2024-01-06T10:50:27;97280.75;;;5.96;100.00
113;BME280;45999;48.808;9.182;2024-01-06T10:52:55;97274.47;;;5.78;100.00
113;BME280;45999;48.808;9.182;2024-01-06T10:55:22;97274.66;;;5.89;100.00
113;BME280;45999;48.808;9.182;2024-01-06T10:57:49;97265.41;;;5.80;100.00
113;BME280;45999;48.808;9.182;2024-01-06T11:00:17;97274.09;;;5.87;100.00
113;BME280;45999;48.808;9.182;2024-01-06T11:02:44;97275.28;;;5.91;100.00
113;BME280;45999;48.808;9.182;2024-01-06T11:05:12;97276.50;;;5.95;100.00
113;BME280;45999;48.808;9.182;2024-01-06T11:07:39;97270.69;;;5.80;100.00
113;BME280;45999;48.808;9.182;2024-01-06T11:10:13;97268.25;;;5.66;100.00
113;BME280;45999;48.808;9.182;2024-01-06T11:12:41;97261.53;;;5.70;100.00
113;BME280;45999;48.808;9.182;2024-01-06T11:15:08;97265.16;;;5.75;100.00
113;BME280;45999;48.808;9.182;2024-01-06T11:17:54;97261.34;;;5.71;100.00
113;BME280;45999;48.808;9.182;2024-01-06T11:20:23;97263.13;;;5.90;100.00
113;BME280;45999;48.808;9.182;2024-01-06T11:22:50;97261.72;;;5.88;100.00
113;BME280;45999;48.808;9.182;2024-01-06T11:25:20;97266.16;;;5.94;100.00
113;BME280;45999;48.808;9.182;2024-01-06T11:27:48;97264.53;;;5.80;100.00
113;BME280;45999;48.808;9.182;2024-01-06T11:30:33;97259.69;;;5.77;100.00
113;BME280;45999;48.808;9.182;2024-01-06T11:33:00;97263.09;;;5.97;100.00
113;BME280;45999;48.808;9.182;2024-01-06T11:35:27;97259.22;;;6.06;100.00
113;BME280;45999;48.808;9.182;2024-01-06T11:38:00;97246.63;;;6.01;100.00
113;BME280;45999;48.808;9.182;2024-01-06T11:40:34;97250.25;;;6.13;100.00
113;BME280;45999;48.808;9.182;2024-01-06T11:43:09;97242.19;;;6.02;100.00
113;BME280;45999;48.808;9.182;2024-01-06T11:45:40;97242.34;;;6.07;100.00
113;BME280;45999;48.808;9.182;2024-01-06T11:48:08;97240.00;;;5.86;100.00
113;BME280;45999;48.808;9.182;2024-01-06T11:50:36;97241.22;;;5.83;100.00
113;BME280;45999;48.808;9.182;2024-01-06T11:53:04;97229.00;;;5.95;100.00
113;BME280;45999;48.808;9.182;2024-01-06T11:55:30;97229.44;;;5.86;100.00
113;BME280;45999;48.808;9.182;2024-01-06T11:57:58;97232.50;;;5.76;100.00
113;BME280;45999;48.808;9.182;2024-01-06T12:00:28;97230.84;;;5.95;100.00
113;BME280;45999;48.808;9.182;2024-01-06T12:02:58;97228.06;;;6.21;100.00
113;BME280;45999;48.808;9.182;2024-01-06T12:05:27;97231.22;;;5.98;100.00
113;BME280;45999;48.808;9.182;2024-01-06T12:07:58;97233.66;;;5.93;100.00
113;BME280;45999;48.808;9.182;2024-01-06T12:10:26;97232.91;;;5.86;100.00
113;BME280;45999;48.808;9.182;2024-01-06T12:13:01;97242.25;;;5.82;100.00
113;BME280;45999;48.808;9.182;2024-01-06T12:15:29;97235.69;;;5.98;100.00
113;BME280;45999;48.808;9.182;2024-01-06T12:17:56;97242.25;;;5.76;100.00
113;BME280;45999;48.808;9.182;2024-01-06T12:20:23;97235.53;;;5.80;100.00
113;BME280;45999;48.808;9.182;2024-01-06T12:22:51;97232.09;;;5.86;100.00
113;BME280;45999;48.808;9.182;2024-01-06T12:25:21;97233.97;;;5.66;100.00
113;BME280;45999;48.808;9.182;2024-01-06T12:27:48;97231.72;;;5.63;100.00
113;BME280;45999;48.808;9.182;2024-01-06T12:30:17;97238.19;;;5.73;100.00
113;BME280;45999;48.808;9.182;2024-01-06T12:32:45;97228.88;;;5.71;100.00
113;BME280;45999;48.808;9.182;2024-01-06T12:35:12;97229.09;;;5.63;100.00
113;BME280;45999;48.808;9.182;2024-01-06T12:37:39;97230.31;;;5.67;100.00
113;BME280;45999;48.808;9.182;2024-01-06T12:40:08;97232.09;;;5.73;100.00
113;BME280;45999;48.808;9.182;2024-01-06T12:42:35;97222.97;;;5.75;100.00
113;BME280;45999;48.808;9.182;2024-01-06T12:45:01;97225.22;;;5.72;100.00
113;BME280;45999;48.808;9.182;2024-01-06T12:47:28;97222.38;;;5.73;100.00
113;BME280;45999;48.808;9.182;2024-01-06T12:49:54;97217.69;;;5.82;100.00
113;BME280;45999;48.808;9.182;2024-01-06T12:52:20;97211.00;;;5.73;100.00
113;BME280;45999;48.808;9.182;2024-01-06T12:54:47;97210.09;;;5.98;100.00
113;BME280;45999;48.808;9.182;2024-01-06T12:57:13;97221.13;;;5.89;100.00
113;BME280;45999;48.808;9.182;2024-01-06T12:59:40;97215.38;;;5.98;100.00
113;BME280;45999;48.808;9.182;2024-01-06T13:02:06;97224.72;;;6.01;100.00
113;BME280;45999;48.808;9.182;2024-01-06T13:04:32;97218.56;;;6.13;100.00
113;BME280;45999;48.808;9.182;2024-01-06T13:06:59;97223.94;;;5.94;100.00
113;BME280;45999;48.808;9.182;2024-01-06T13:09:27;97227.13;;;6.02;100.00
113;BME280;45999;48.808;9.182;2024-01-06T13:11:53;97228.34;;;6.06;100.00
113;BME280;45999;48.808;9.182;2024-01-06T13:14:21;97227.72;;;6.11;100.00
113;BME280;45999;48.808;9.182;2024-01-06T13:16:48;97225.88;;;6.11;100.00
113;BME280;45999;48.808;9.182;2024-01-06T13:19:14;97229.75;;;6.09;100.00
113;BME280;45999;48.808;9.182;2024-01-06T13:21:40;97239.13;;;5.98;100.00
113;BME280;45999;48.808;9.182;2024-01-06T13:24:07;97236.66;;;6.10;100.00